Time;durP1;ratioP1;P1;durP2;ratioP2;P2;SDS_P1;SDS_P2;PMS_P1;PMS_P2;Temp;Humidity;BMP_temperature;BMP_pressure;BME280_temperature;BME280_humidity;BME280_pressure;Samples;Min_cycle;Max_cycle;Signal;HPM_P1;HPM_P2
2022/06/11 00:00:08;;;;;;;242.70;232.20;;;19.00;99.90;;;;;;5031589;28;20183;-72
2022/06/11 00:02:34;;;;;;;285.98;272.75;;;19.10;99.90;;;;;;5032293;28;20264;-72
2022/06/11 00:05:00;;;;;;;304.23;290.33;;;19.20;99.90;;;;;;5030702;28;20632;-72
2022/06/11 00:07:25;;;;;;;354.77;337.33;;;19.20;99.90;;;;;;5033975;28;20194;-72
2022/06/11 00:09:52;;;;;;;324.88;309.58;;;19.20;99.90;;;;;;5021156;28;20192;-72
2022/06/11 00:12:18;;;;;;;279.17;265.98;;;19.20;99.90;;;;;;5022045;28;20273;-71
2022/06/11 00:14:46;;;;;;;274.05;261.63;;;19.30;99.90;;;;;;5027367;28;20234;-71
2022/06/11 00:17:15;;;;;;;281.10;268.35;;;19.50;99.90;;;;;;5021707;28;20375;-71
2022/06/11 00:19:42;;;;;;;371.63;353.52;;;19.50;99.90;;;;;;5029485;28;20185;-72
2022/06/11 00:22:12;;;;;;;276.38;263.80;;;19.40;99.90;;;;;;5032969;28;20621;-71
2022/06/11 00:24:38;;;;;;;355.73;339.08;;;19.30;99.90;;;;;;5023468;28;20621;-72
2022/06/11 00:27:05;;;;;;;346.75;328.92;;;19.40;99.90;;;;;;5028754;28;20206;-71
2022/06/11 00:29:34;;;;;;;284.30;271.98;;;19.40;99.90;;;;;;5031136;28;20652;-71
2022/06/11 00:32:00;;;;;;;292.23;278.73;;;19.40;99.90;;;;;;5030490;28;20194;-71
2022/06/11 00:34:26;;;;;;;266.10;253.73;;;19.50;99.90;;;;;;5032961;28;20214;-71
2022/06/11 00:36:52;;;;;;;311.58;296.95;;;19.40;99.90;;;;;;5012839;28;20575;-71
2022/06/11 00:39:22;;;;;;;297.77;283.52;;;19.30;99.90;;;;;;5025571;28;20286;-71
2022/06/11 00:41:52;;;;;;;293.85;280.60;;;19.30;99.90;;;;;;5018656;28;20221;-71
2022/06/11 00:44:17;;;;;;;345.10;328.50;;;19.30;99.90;;;;;;5028687;28;20553;-71
2022/06/11 00:47:01;;;;;;;313.60;299.13;;;19.30;99.90;;;;;;5045445;28;20286;-71
2022/06/11 00:49:33;;;;;;;282.13;269.10;;;19.30;99.90;;;;;;5029022;28;20220;-72
2022/06/11 00:52:13;;;;;;;249.70;238.80;;;19.30;99.90;;;;;;5027420;28;20234;-72
2022/06/11 00:54:42;;;;;;;288.40;275.60;;;19.20;99.90;;;;;;5032326;28;20340;-72
2022/06/11 00:57:11;;;;;;;292.42;278.67;;;19.20;99.90;;;;;;5030867;28;20596;-72
2022/06/11 00:59:46;;;;;;;259.25;247.95;;;19.10;99.90;;;;;;5039505;28;20187;-72
2022/06/11 01:02:12;;;;;;;227.20;217.52;;;19.10;99.90;;;;;;5018318;28;20222;-72
2022/06/11 01:04:52;;;;;;;235.98;225.23;;;19.10;99.90;;;;;;5024119;28;20182;-72
2022/06/11 01:07:27;;;;;;;264.60;252.55;;;19.20;99.90;;;;;;5031729;28;20171;-72
2022/06/11 01:10:20;;;;;;;234.55;224.15;;;19.20;99.90;;;;;;5029086;28;20191;-72
2022/06/11 01:13:31;;;;;;;204.18;195.70;;;19.30;99.90;;;;;;5020392;28;20184;-72
2022/06/11 01:16:02;;;;;;;214.88;205.57;;;19.40;99.90;;;;;;5013931;28;20217;-72
2022/06/11 01:18:51;;;;;;;270.17;258.42;;;19.40;99.90;;;;;;5028750;28;20203;-72
2022/06/11 01:21:36;;;;;;;214.70;204.07;;;19.30;99.90;;;;;;5022700;28;20183;-72
2022/06/11 01:24:26;;;;;;;188.70;181.07;;;19.30;99.90;;;;;;5027242;28;20288;-72
2022/06/11 01:27:26;;;;;;;203.40;194.60;;;19.30;99.90;;;;;;5031901;28;20235;-73
2022/06/11 01:30:03;;;;;;;200.88;192.75;;;19.30;99.90;;;;;;5018087;28;20205;-73
2022/06/11 01:32:55;;;;;;;191.93;184.15;;;19.30;99.90;;;;;;5026850;28;20186;-72
2022/06/11 01:35:28;;;;;;;202.48;193.23;;;19.40;99.90;;;;;;5023081;28;20229;-72
2022/06/11 01:37:55;;;;;;;192.02;184.35;;;19.50;99.90;;;;;;5045869;28;20179;-72
2022/06/11 01:40:53;;;;;;;216.13;206.82;;;19.50;99.90;;;;;;5031591;28;20632;-72
2022/06/11 01:43:19;;;;;;;221.82;212.15;;;19.40;99.90;;;;;;5040921;28;20234;-71
2022/06/11 01:45:49;;;;;;;186.27;178.50;;;19.60;99.90;;;;;;5047670;28;20214;-72
2022/06/11 01:48:21;;;;;;;187.90;180.20;;;19.60;99.90;;;;;;5027247;28;20180;-72
2022/06/11 01:51:05;;;;;;;215.93;206.52;;;19.60;99.90;;;;;;5022948;28;20186;-72
2022/06/11 01:53:42;;;;;;;170.98;164.45;;;19.50;99.90;;;;;;5034318;28;20679;-72
2022/06/11 01:56:10;;;;;;;171.88;165.15;;;19.50;99.90;;;;;;5046958;28;20549;-72
2022/06/11 01:58:48;;;;;;;199.43;191.05;;;19.50;99.90;;;;;;5028477;28;20542;-72
2022/06/11 02:01:23;;;;;;;225.02;215.52;;;19.50;99.90;;;;;;5023209;28;20213;-72
2022/06/11 02:04:19;;;;;;;202.25;193.93;;;19.50;99.90;;;;;;5047569;28;20190;-72
2022/06/11 02:06:45;;;;;;;188.90;180.88;;;19.50;99.90;;;;;;5019076;28;20191;-72
2022/06/11 02:09:31;;;;;;;216.32;207.35;;;19.50;99.90;;;;;;5031426;28;20194;-72
2022/06/11 02:12:16;;;;;;;188.50;180.70;;;19.60;99.90;;;;;;5032016;28;20179;-72
2022/06/11 02:14:52;;;;;;;211.88;202.82;;;19.40;99.90;;;;;;5031992;28;20228;-72
2022/06/11 02:17:26;;;;;;;191.10;183.30;;;19.40;99.90;;;;;;5036931;28;20187;-72
2022/06/11 02:20:17;;;;;;;202.40;194.25;;;19.60;99.90;;;;;;5027042;28;20218;-71
2022/06/11 02:22:51;;;;;;;205.52;196.90;;;19.70;99.90;;;;;;5031199;28;20191;-72
2022/06/11 02:25:26;;;;;;;189.07;181.48;;;19.70;99.90;;;;;;5031267;28;20180;-72
2022/06/11 02:27:56;;;;;;;235.00;225.18;;;19.50;99.90;;;;;;5030763;28;20182;-72
2022/06/11 02:30:25;;;;;;;244.77;233.93;;;19.50;99.90;;;;;;5031232;28;20281;-72
2022/06/11 02:32:51;;;;;;;238.27;227.77;;;19.50;99.90;;;;;;5031268;28;20606;-72
2022/06/11 02:35:38;;;;;;;276.45;264.50;;;19.60;99.90;;;;;;5025843;28;20230;-72
2022/06/11 02:38:08;;;;;;;218.73;209.70;;;19.50;99.90;;;;;;5018841;28;20240;-72
2022/06/11 02:40:42;;;;;;;292.55;279.70;;;19.50;99.90;;;;;;5030089;28;20190;-73
2022/06/11 02:43:08;;;;;;;237.60;227.43;;;19.50;99.90;;;;;;5018470;28;20174;-72
2022/06/11 02:45:34;;;;;;;266.77;254.23;;;19.50;99.90;;;;;;5042116;28;20281;-73
2022/06/11 02:48:00;;;;;;;319.38;304.55;;;19.40;99.90;;;;;;5026017;28;20190;-73
2022/06/11 02:50:32;;;;;;;274.20;261.25;;;19.30;99.90;;;;;;5019097;28;20215;-73
2022/06/11 02:52:59;;;;;;;323.75;309.08;;;19.30;99.90;;;;;;5030160;28;20202;-73
2022/06/11 02:55:26;;;;;;;270.02;258.38;;;19.30;99.90;;;;;;5034263;28;20187;-73
2022/06/11 02:57:52;;;;;;;328.23;313.20;;;19.30;99.90;;;;;;5030569;28;20190;-72
2022/06/11 03:00:23;;;;;;;374.17;355.70;;;19.20;99.90;;;;;;5033325;28;20189;-73
2022/06/11 03:02:52;;;;;;;370.38;353.85;;;19.40;99.90;;;;;;5032187;28;20628;-71
2022/06/11 03:05:22;;;;;;;278.52;266.55;;;19.40;99.90;;;;;;5034510;28;20240;-72
2022/06/11 03:07:49;;;;;;;363.83;346.70;;;19.50;99.90;;;;;;5032931;28;20186;-72
2022/06/11 03:10:17;;;;;;;375.58;358.25;;;19.50;99.90;;;;;;5021166;28;20266;-72
2022/06/11 03:12:43;;;;;;;378.55;359.80;;;19.40;99.90;;;;;;5033867;28;20591;-73
2022/06/11 03:15:13;;;;;;;332.83;317.83;;;19.20;99.90;;;;;;5029935;28;20214;-72
2022/06/11 03:17:43;;;;;;;408.10;388.60;;;19.20;99.90;;;;;;5025585;28;20189;-72
2022/06/11 03:20:17;;;;;;;371.42;354.25;;;19.20;99.90;;;;;;5035130;28;20183;-72
2022/06/11 03:22:43;;;;;;;346.40;330.77;;;19.10;99.90;;;;;;5026856;28;20221;-75
2022/06/11 03:25:09;;;;;;;375.13;357.27;;;19.20;99.90;;;;;;5021791;28;20593;-71
2022/06/11 03:27:38;;;;;;;366.65;350.08;;;19.10;99.90;;;;;;5020821;28;20221;-75
2022/06/11 03:30:10;;;;;;;411.27;391.65;;;19.10;99.90;;;;;;5031404;28;20705;-72
2022/06/11 03:32:39;;;;;;;386.38;368.05;;;19.20;99.90;;;;;;5033190;28;20194;-73
2022/06/11 03:35:09;;;;;;;398.95;380.17;;;19.30;99.90;;;;;;5018733;28;20638;-72
2022/06/11 03:37:38;;;;;;;367.90;351.25;;;19.30;99.90;;;;;;5031850;28;20240;-72
2022/06/11 03:40:05;;;;;;;385.35;367.50;;;19.30;99.90;;;;;;5034923;28;20182;-72
2022/06/11 03:42:31;;;;;;;407.10;388.48;;;19.30;99.90;;;;;;5033934;28;20217;-72
2022/06/11 03:44:56;;;;;;;408.73;390.15;;;19.20;99.90;;;;;;5033621;28;20183;-72
2022/06/11 03:47:22;;;;;;;394.13;375.38;;;19.30;99.90;;;;;;5033740;28;20628;-73
2022/06/11 03:49:48;;;;;;;456.45;434.63;;;19.30;99.90;;;;;;5049997;28;20202;-72
2022/06/11 03:52:14;;;;;;;463.17;440.70;;;19.20;99.90;;;;;;5026334;28;20544;-72
2022/06/11 03:54:39;;;;;;;379.25;361.52;;;19.20;99.90;;;;;;5050083;28;20210;-72
2022/06/11 03:57:06;;;;;;;469.65;447.15;;;19.20;99.90;;;;;;5023363;28;20637;-72
2022/06/11 03:59:32;;;;;;;385.65;367.73;;;19.20;99.90;;;;;;5034672;28;20193;-73
2022/06/11 04:01:58;;;;;;;464.95;442.27;;;19.20;99.90;;;;;;5019087;28;20213;-72
2022/06/11 04:04:24;;;;;;;338.30;323.00;;;19.20;99.90;;;;;;5033431;28;20198;-72
2022/06/11 04:06:56;;;;;;;327.70;313.75;;;19.20;99.90;;;;;;5032347;28;20207;-72
2022/06/11 04:09:30;;;;;;;362.70;346.42;;;19.20;99.90;;;;;;5033288;28;20207;-73
2022/06/11 04:11:56;;;;;;;351.38;335.58;;;19.20;99.90;;;;;;5016078;28;20547;-72
2022/06/11 04:14:22;;;;;;;391.48;373.67;;;19.20;99.90;;;;;;5025173;28;20698;-72
2022/06/11 04:16:58;;;;;;;356.17;339.50;;;19.30;99.90;;;;;;5031052;28;20182;-72
2022/06/11 04:19:34;;;;;;;403.33;384.48;;;19.40;99.90;;;;;;5022743;28;20261;-72
2022/06/11 04:22:00;;;;;;;331.08;316.73;;;19.40;99.90;;;;;;5030257;28;20643;-75
2022/06/11 04:24:27;;;;;;;342.60;327.33;;;19.50;99.90;;;;;;5033627;28;20225;-72
2022/06/11 04:26:56;;;;;;;345.40;330.63;;;19.50;99.90;;;;;;5039060;28;20561;-71
2022/06/11 04:29:25;;;;;;;379.55;362.15;;;19.50;99.90;;;;;;5020704;28;20183;-72
2022/06/11 04:31:53;;;;;;;461.95;438.85;;;19.40;99.90;;;;;;5041422;28;20171;-72
2022/06/11 04:34:20;;;;;;;333.13;318.60;;;19.40;99.90;;;;;;5022947;28;20277;-71
2022/06/11 04:36:49;;;;;;;409.75;388.27;;;19.50;99.90;;;;;;5014466;28;20665;-71
2022/06/11 04:39:16;;;;;;;386.98;369.15;;;19.60;99.90;;;;;;5028633;28;20193;-71
2022/06/11 04:41:43;;;;;;;420.73;400.58;;;19.70;99.90;;;;;;5016098;28;20184;-71
2022/06/11 04:44:08;;;;;;;429.35;408.88;;;19.60;99.90;;;;;;5024777;28;20187;-72
2022/06/11 04:46:36;;;;;;;471.17;447.63;;;19.50;99.90;;;;;;5014351;28;20183;-71
2022/06/11 04:49:02;;;;;;;429.60;408.33;;;19.50;99.90;;;;;;5031994;28;20187;-73
2022/06/11 04:51:28;;;;;;;421.75;401.77;;;19.50;99.90;;;;;;5033717;28;20187;-72
2022/06/11 04:53:54;;;;;;;470.75;447.67;;;19.50;99.90;;;;;;5031688;28;20226;-72
2022/06/11 04:56:23;;;;;;;485.20;462.17;;;19.50;99.90;;;;;;5029126;28;20187;-71
2022/06/11 04:58:49;;;;;;;526.55;500.13;;;19.60;99.90;;;;;;5024629;28;20601;-74
2022/06/11 05:01:15;;;;;;;491.95;467.38;;;19.50;99.90;;;;;;5031475;28;20201;-69
2022/06/11 05:03:42;;;;;;;542.08;514.95;;;19.30;99.90;;;;;;5030406;28;20275;-70
2022/06/11 05:06:07;;;;;;;555.92;527.10;;;19.30;99.90;;;;;;5030683;28;20198;-72
2022/06/11 05:08:34;;;;;;;500.17;475.45;;;19.20;99.90;;;;;;5025489;28;20191;-72
2022/06/11 05:11:00;;;;;;;525.28;499.08;;;19.30;99.90;;;;;;5017729;28;20189;-71
2022/06/11 05:13:25;;;;;;;560.70;531.53;;;19.40;99.90;;;;;;5017481;28;20215;-71
2022/06/11 05:15:53;;;;;;;624.72;590.72;;;19.60;99.90;;;;;;5024183;28;20270;-72
2022/06/11 05:18:21;;;;;;;682.40;643.63;;;19.80;99.90;;;;;;5019278;28;20252;-72
2022/06/11 05:20:47;;;;;;;737.83;693.65;;;19.90;99.90;;;;;;5021637;28;20183;-72
2022/06/11 05:23:14;;;;;;;805.88;756.80;;;19.90;99.90;;;;;;5017965;28;20719;-72
2022/06/11 05:25:41;;;;;;;852.97;800.17;;;19.90;99.90;;;;;;5026971;28;20209;-71
2022/06/11 05:28:13;;;;;;;916.72;857.15;;;20.00;99.90;;;;;;5027083;28;20841;-71
2022/06/11 05:30:39;;;;;;;946.40;884.15;;;20.00;99.90;;;;;;5017786;28;20191;-69
2022/06/11 05:33:05;;;;;;;998.30;931.30;;;19.90;99.90;;;;;;5031297;28;20242;-71
2022/06/11 05:35:33;;;;;;;1032.97;959.97;;;19.80;99.90;;;;;;5029318;28;20224;-71
2022/06/11 05:38:01;;;;;;;1070.68;993.17;;;19.80;99.90;;;;;;5027404;28;20186;-74
2022/06/11 05:40:35;;;;;;;1117.13;999.90;;;19.90;99.90;;;;;;5027231;28;20206;-73
2022/06/11 05:43:01;;;;;;;1133.82;999.90;;;19.90;99.90;;;;;;5023333;28;20183;-73
2022/06/11 05:45:35;;;;;;;1160.13;999.90;;;20.00;99.90;;;;;;5024293;28;20557;-72
2022/06/11 05:48:03;;;;;;;1180.45;999.90;;;20.00;99.90;;;;;;5017447;28;20628;-73
2022/06/11 05:50:33;;;;;;;1191.82;999.90;;;19.90;99.90;;;;;;5011672;28;20186;-73
2022/06/11 05:53:01;;;;;;;1195.45;999.90;;;19.60;99.90;;;;;;5024363;28;20194;-73
2022/06/11 05:55:30;;;;;;;1152.32;999.90;;;19.60;99.90;;;;;;5017102;28;20191;-71
2022/06/11 05:57:59;;;;;;;1184.40;999.90;;;19.40;99.90;;;;;;5022652;28;20178;-72
2022/06/11 06:00:26;;;;;;;1158.30;999.90;;;19.60;99.90;;;;;;5040806;28;20194;-74
2022/06/11 06:02:51;;;;;;;1175.35;999.90;;;19.50;99.90;;;;;;5025242;28;20206;-72
2022/06/11 06:05:21;;;;;;;1163.60;999.90;;;19.50;99.90;;;;;;5023916;28;20240;-71
2022/06/11 06:07:47;;;;;;;1176.55;999.90;;;19.60;99.90;;;;;;5023423;28;20313;-71
2022/06/11 06:10:13;;;;;;;1203.40;999.90;;;19.70;99.90;;;;;;4998199;28;20290;-73
2022/06/11 06:12:39;;;;;;;1229.20;999.90;;;19.90;99.90;;;;;;5019290;28;20191;-72
2022/06/11 06:15:17;;;;;;;1257.38;999.90;;;20.50;99.90;;;;;;5029387;28;20218;-72
2022/06/11 06:17:43;;;;;;;1269.78;999.90;;;20.60;99.90;;;;;;5030860;28;20186;-73
2022/06/11 06:20:13;;;;;;;1264.15;999.90;;;20.50;99.90;;;;;;5014182;28;20241;-72
2022/06/11 06:22:39;;;;;;;1282.45;999.90;;;20.20;99.90;;;;;;5024174;28;20197;-73
2022/06/11 06:25:05;;;;;;;1296.20;999.90;;;20.10;99.90;;;;;;5023617;28;20248;-71
2022/06/11 06:27:31;;;;;;;1292.18;999.90;;;20.00;99.90;;;;;;5006413;28;20187;-71
2022/06/11 06:29:56;;;;;;;1281.93;999.90;;;20.10;99.90;;;;;;5039387;28;20288;-75
2022/06/11 06:32:22;;;;;;;1256.07;999.90;;;20.20;99.90;;;;;;5007099;28;20286;-72
2022/06/11 06:34:48;;;;;;;1279.78;999.90;;;20.20;99.90;;;;;;5039610;28;20510;-73
2022/06/11 06:37:13;;;;;;;1290.57;999.90;;;20.20;99.90;;;;;;5031615;28;20190;-70
2022/06/11 06:39:39;;;;;;;1285.85;999.90;;;20.00;99.90;;;;;;5028763;28;20190;-72
2022/06/11 06:42:06;;;;;;;1280.60;999.90;;;19.80;99.90;;;;;;5018059;28;20610;-70
2022/06/11 06:44:33;;;;;;;1288.20;999.90;;;19.90;99.90;;;;;;5024918;28;20186;-72
2022/06/11 06:46:59;;;;;;;1264.53;999.90;;;20.10;99.90;;;;;;5020346;28;20240;-71
2022/06/11 06:49:24;;;;;;;1267.80;999.90;;;20.40;99.90;;;;;;5022792;28;20191;-70
2022/06/11 06:51:50;;;;;;;1281.05;999.90;;;20.60;99.90;;;;;;5025578;28;20184;-70
2022/06/11 06:54:16;;;;;;;1250.85;999.90;;;20.80;99.90;;;;;;5027801;28;20705;-70
2022/06/11 06:56:44;;;;;;;1260.85;999.90;;;20.80;99.90;;;;;;5020317;28;20241;-70
2022/06/11 06:59:10;;;;;;;1229.50;999.90;;;21.00;99.90;;;;;;5027900;28;20274;-71
2022/06/11 07:01:36;;;;;;;1791.45;999.90;;;21.40;99.90;;;;;;5016962;28;20203;-71
2022/06/11 07:04:02;;;;;;;1999.90;999.90;;;22.30;99.90;;;;;;5027839;28;20218;-70
2022/06/11 07:06:27;;;;;;;1999.90;999.90;;;22.60;99.90;;;;;;5025235;28;20194;-71
2022/06/11 07:08:54;;;;;;;1999.90;999.90;;;22.40;99.90;;;;;;5037001;28;20191;-72
2022/06/11 07:11:21;;;;;;;1999.90;999.90;;;22.10;99.90;;;;;;5021176;28;20589;-71
2022/06/11 07:13:47;;;;;;;1999.90;999.90;;;22.20;99.90;;;;;;5022826;28;20210;-71
2022/06/11 07:16:23;;;;;;;1999.90;999.90;;;22.20;99.90;;;;;;5027071;28;20199;-72
2022/06/11 07:18:53;;;;;;;1601.47;829.78;;;22.30;99.90;;;;;;5028968;28;20647;-72
2022/06/11 07:21:24;;;;;;;1999.90;999.90;;;22.40;99.90;;;;;;5030180;28;20270;-72
2022/06/11 07:23:58;;;;;;;1999.90;999.90;;;22.20;99.90;;;;;;5025725;28;20179;-72
2022/06/11 07:26:36;;;;;;;1999.90;999.90;;;22.40;99.90;;;;;;5034985;28;20187;-72
2022/06/11 07:29:07;;;;;;;1999.90;999.90;;;22.70;99.90;;;;;;5025809;28;20258;-71
2022/06/11 07:31:33;;;;;;;1999.90;999.90;;;23.00;99.90;;;;;;5022434;28;20257;-71
2022/06/11 07:34:00;;;;;;;1999.90;999.90;;;23.40;99.90;;;;;;5029263;28;20210;-74
2022/06/11 07:36:26;;;;;;;1999.90;999.90;;;23.30;99.90;;;;;;5024735;28;20655;-71
2022/06/11 07:38:52;;;;;;;1999.90;999.90;;;23.50;99.90;;;;;;5024085;28;20187;-72
2022/06/11 07:41:18;;;;;;;1999.90;999.90;;;24.70;99.90;;;;;;5013193;28;20269;-73
2022/06/11 07:43:44;;;;;;;1999.90;999.90;;;25.30;99.90;;;;;;5034416;28;20269;-73
2022/06/11 07:46:09;;;;;;;1999.90;999.90;;;25.00;99.90;;;;;;5010040;28;20230;-71
2022/06/11 07:48:35;;;;;;;1999.90;999.90;;;25.10;99.90;;;;;;5032407;28;20640;-73
2022/06/11 07:51:01;;;;;;;1999.90;999.90;;;25.80;99.90;;;;;;5018926;28;20628;-72
2022/06/11 07:53:27;;;;;;;1999.90;999.90;;;25.80;99.90;;;;;;5032964;28;20567;-76
2022/06/11 07:55:54;;;;;;;1999.90;999.90;;;25.80;99.90;;;;;;5033277;28;20201;-76
2022/06/11 07:58:28;;;;;;;1999.90;999.90;;;26.30;99.90;;;;;;5015066;28;20247;-75
2022/06/11 08:00:54;;;;;;;1999.90;999.90;;;26.30;99.90;;;;;;5032549;28;20632;-76
2022/06/11 08:03:21;;;;;;;1999.90;999.90;;;25.90;99.90;;;;;;5033358;28;20666;-74
2022/06/11 08:05:48;;;;;;;1999.90;999.90;;;25.70;99.90;;;;;;5016239;28;20198;-74
2022/06/11 08:08:15;;;;;;;1999.90;999.90;;;25.80;99.90;;;;;;5030116;28;20285;-74
2022/06/11 08:10:42;;;;;;;1999.90;999.90;;;26.20;99.90;;;;;;5032263;28;20659;-74
2022/06/11 08:13:09;;;;;;;1999.90;999.90;;;27.00;99.90;;;;;;5027769;28;20277;-73
2022/06/11 08:15:36;;;;;;;1999.90;999.90;;;27.50;99.90;;;;;;5023937;28;20186;-73
2022/06/11 08:18:02;;;;;;;1999.90;999.90;;;27.50;99.90;;;;;;5030930;28;20512;-74
2022/06/11 08:20:31;;;;;;;1999.90;999.90;;;26.80;99.90;;;;;;5019867;28;20214;-70
2022/06/11 08:22:57;;;;;;;1999.90;999.90;;;26.10;99.90;;;;;;5041411;28;20273;-72
2022/06/11 08:25:24;;;;;;;1999.90;999.90;;;26.50;99.90;;;;;;5035157;28;20210;-75
2022/06/11 08:27:50;;;;;;;1999.90;999.90;;;27.10;99.90;;;;;;5030087;28;20186;-75
2022/06/11 08:30:19;;;;;;;1999.90;999.90;;;27.50;99.90;;;;;;5025595;28;20225;-73
2022/06/11 08:32:46;;;;;;;1999.90;999.90;;;27.20;99.90;;;;;;5028286;28;20182;-73
2022/06/11 08:35:13;;;;;;;1999.90;999.90;;;27.30;99.90;;;;;;5026508;28;20218;-74
2022/06/11 08:37:39;;;;;;;1999.90;999.90;;;27.60;99.90;;;;;;5026107;28;20270;-75
2022/06/11 08:40:11;;;;;;;1999.90;999.90;;;27.50;99.90;;;;;;5022593;28;20266;-77
2022/06/11 08:42:40;;;;;;;1999.90;999.90;;;27.40;99.90;;;;;;5030896;28;20201;-73
2022/06/11 08:45:20;;;;;;;1999.90;999.90;;;27.10;99.90;;;;;;5030765;28;20581;-73
2022/06/11 08:47:51;;;;;;;1999.90;999.90;;;27.00;99.90;;;;;;5032993;28;20197;-72
2022/06/11 08:50:23;;;;;;;1999.90;999.90;;;27.10;99.90;;;;;;5028651;28;20186;-73
2022/06/11 08:52:50;;;;;;;1999.90;999.90;;;27.30;99.90;;;;;;5022928;28;20213;-75
2022/06/11 08:55:18;;;;;;;1999.90;999.90;;;27.70;99.90;;;;;;5031711;28;20209;-75
2022/06/11 08:57:51;;;;;;;1999.90;999.90;;;28.40;99.90;;;;;;5024498;28;20236;-73
2022/06/11 09:00:42;;;;;;;1999.90;999.90;;;29.90;99.90;;;;;;5045337;28;20194;-74
2022/06/11 09:03:44;;;;;;;1999.90;999.90;;;31.00;99.90;;;;;;5022570;28;20229;-74
2022/06/11 09:06:22;;;;;;;1999.90;999.90;;;31.10;99.90;;;;;;5024401;28;20197;-73
2022/06/11 09:08:53;;;;;;;1999.90;999.90;;;31.60;99.90;;;;;;5028869;28;20174;-73
2022/06/11 09:11:33;;;;;;;1999.90;999.90;;;31.30;99.90;;;;;;5029228;28;20186;-71
2022/06/11 09:14:16;;;;;;;1999.90;999.90;;;31.20;99.90;;;;;;5020095;28;20209;-71
2022/06/11 09:17:05;;;;;;;1999.90;999.90;;;32.30;99.90;;;;;;5030117;28;20180;-72
2022/06/11 09:19:51;;;;;;;1999.90;999.90;;;32.70;99.90;;;;;;5031138;28;20217;-72
2022/06/11 09:22:44;;;;;;;1999.90;999.90;;;32.30;99.90;;;;;;5023900;28;20187;-73
2022/06/11 09:25:35;;;;;;;1999.90;999.90;;;33.10;99.90;;;;;;5023226;28;20187;-72
2022/06/11 09:28:20;;;;;;;1999.90;999.90;;;33.50;99.90;;;;;;5025572;28;20189;-72
2022/06/11 09:31:02;;;;;;;1999.90;999.90;;;33.40;99.90;;;;;;5020988;28;20249;-75
2022/06/11 09:33:49;;;;;;;1999.90;999.90;;;33.40;99.90;;;;;;5026545;28;20199;-75
2022/06/11 09:36:55;;;;;;;1999.90;999.90;;;33.00;99.90;;;;;;5031457;28;20181;-74
2022/06/11 09:39:35;;;;;;;1999.90;999.90;;;32.00;99.90;;;;;;5027613;28;20182;-76
2022/06/11 09:42:42;;;;;;;1999.90;999.90;;;30.60;99.90;;;;;;5020843;28;20174;-76
2022/06/11 09:45:24;;;;;;;1999.90;999.90;;;29.60;99.90;;;;;;5029494;28;20192;-75
2022/06/11 09:48:28;;;;;;;1999.90;999.90;;;28.90;99.90;;;;;;5031618;28;20190;-75
2022/06/11 09:51:18;;;;;;;1999.90;999.90;;;28.30;99.90;;;;;;5026281;28;20189;-76
2022/06/11 09:54:18;;;;;;;1999.90;999.90;;;27.90;99.90;;;;;;5019161;28;20210;-76
2022/06/11 09:56:57;;;;;;;1999.90;999.90;;;27.60;99.90;;;;;;5031642;28;20671;-76
2022/06/11 09:59:33;;;;;;;1999.90;999.90;;;27.30;99.90;;;;;;5032291;28;20177;-76
2022/06/11 10:02:17;;;;;;;1999.90;999.90;;;26.60;99.90;;;;;;5038705;28;20249;-75
2022/06/11 10:04:46;;;;;;;1999.90;999.90;;;26.10;99.90;;;;;;5020965;28;20197;-75
2022/06/11 10:07:21;;;;;;;1999.90;999.90;;;25.90;99.90;;;;;;5030330;28;20228;-75
2022/06/11 10:10:05;;;;;;;1999.90;999.90;;;26.00;99.90;;;;;;5020438;28;20265;-75
2022/06/11 10:12:36;;;;;;;1999.90;999.90;;;25.90;99.90;;;;;;5032151;28;20298;-75
2022/06/11 10:15:11;;;;;;;1999.90;999.90;;;26.00;99.90;;;;;;5032327;28;20233;-75
2022/06/11 10:17:51;;;;;;;1999.90;999.90;;;25.90;99.90;;;;;;5031517;28;20248;-75
2022/06/11 10:20:51;;;;;;;1999.90;999.90;;;25.70;99.90;;;;;;5018624;28;20244;-76
2022/06/11 10:23:50;;;;;;;1999.90;999.90;;;25.90;99.90;;;;;;5031971;28;20205;-74
2022/06/11 10:26:19;;;;;;;1999.90;999.90;;;25.90;99.90;;;;;;5014771;28;20557;-76
2022/06/11 10:29:19;;;;;;;1999.90;999.90;;;26.00;99.90;;;;;;5013196;28;20179;-75
2022/06/11 10:31:50;;;;;;;1999.90;999.90;;;25.80;99.90;;;;;;5019341;28;20194;-75
2022/06/11 10:34:26;;;;;;;1999.90;999.90;;;25.90;99.90;;;;;;5032294;28;20654;-76
2022/06/11 10:37:10;;;;;;;1999.90;999.90;;;25.90;99.90;;;;;;5016008;28;20521;-76
2022/06/11 10:40:07;;;;;;;1999.90;999.90;;;26.00;99.90;;;;;;5030854;28;20194;-76
2022/06/11 10:42:40;;;;;;;1999.90;999.90;;;26.20;99.90;;;;;;5023992;28;20186;-74
2022/06/11 10:45:13;;;;;;;1999.90;999.90;;;26.20;99.90;;;;;;5046958;28;20325;-74
2022/06/11 10:47:46;;;;;;;1999.90;999.90;;;26.20;99.90;;;;;;5047392;28;20179;-74
2022/06/11 10:50:12;;;;;;;1999.90;999.90;;;26.10;99.90;;;;;;5017291;28;20647;-74
2022/06/11 10:52:40;;;;;;;1999.90;999.90;;;26.10;99.90;;;;;;5030855;28;20206;-74
2022/06/11 10:55:12;;;;;;;1999.90;999.90;;;25.90;99.90;;;;;;5030215;28;20319;-74
2022/06/11 10:57:39;;;;;;;1999.90;999.90;;;26.10;99.90;;;;;;5030939;28;20191;-75
2022/06/11 11:00:17;;;;;;;1999.90;999.90;;;25.70;99.90;;;;;;5020611;28;20183;-74
2022/06/11 11:02:57;;;;;;;1999.90;999.90;;;25.60;99.90;;;;;;5030523;28;20238;-76
2022/06/11 11:05:23;;;;;;;1999.90;999.90;;;25.50;99.90;;;;;;5030429;28;20233;-74
2022/06/11 11:08:02;;;;;;;1999.90;999.90;;;25.20;99.90;;;;;;5046907;28;20194;-74
2022/06/11 11:10:37;;;;;;;1999.90;999.90;;;25.20;99.90;;;;;;5042701;28;20190;-74
2022/06/11 11:13:11;;;;;;;1999.90;999.90;;;25.20;99.90;;;;;;5024529;28;20190;-74
2022/06/11 11:15:51;;;;;;;1999.90;999.90;;;25.10;99.90;;;;;;5031696;28;20632;-77
2022/06/11 11:18:24;;;;;;;1999.90;999.90;;;25.30;99.90;;;;;;5035424;28;20178;-76
2022/06/11 11:20:53;;;;;;;1999.90;999.90;;;25.30;99.90;;;;;;5035234;28;20190;-74
2022/06/11 11:23:31;;;;;;;1999.90;999.90;;;25.40;99.90;;;;;;5044340;28;20232;-74
2022/06/11 11:26:10;;;;;;;1999.90;999.90;;;25.60;99.90;;;;;;5025176;28;20265;-76
2022/06/11 11:28:57;;;;;;;1999.90;999.90;;;25.90;99.90;;;;;;5024464;28;20197;-73
2022/06/11 11:31:28;;;;;;;1999.90;999.90;;;26.00;99.90;;;;;;5034341;28;20663;-74
2022/06/11 11:33:59;;;;;;;1999.90;999.90;;;26.00;99.90;;;;;;5050464;28;20214;-74
2022/06/11 11:36:27;;;;;;;1999.90;999.90;;;25.90;99.90;;;;;;5033924;28;20639;-73
2022/06/11 11:39:13;;;;;;;1999.90;999.90;;;25.90;99.90;;;;;;5050601;28;20186;-75
2022/06/11 11:41:49;;;;;;;1999.90;999.90;;;25.70;99.90;;;;;;5033783;28;20182;-73
2022/06/11 11:44:20;;;;;;;1999.90;999.90;;;25.60;99.90;;;;;;5033368;28;20240;-74
2022/06/11 11:46:51;;;;;;;1999.90;999.90;;;25.60;99.90;;;;;;5030379;28;20179;-74
2022/06/11 11:49:27;;;;;;;1999.90;999.90;;;25.50;99.90;;;;;;5033723;28;20518;-76
2022/06/11 11:52:01;;;;;;;1999.90;999.90;;;25.60;99.90;;;;;;5034504;28;20174;-74
2022/06/11 11:54:27;;;;;;;1999.90;999.90;;;25.90;99.90;;;;;;5023191;28;20247;-73
2022/06/11 11:57:04;;;;;;;1999.90;999.90;;;26.20;99.90;;;;;;5049674;28;20194;-75
2022/06/11 11:59:43;;;;;;;1999.90;999.90;;;26.20;99.90;;;;;;5050168;28;20232;-75
2022/06/11 12:02:42;;;;;;;1999.90;999.90;;;26.40;99.90;;;;;;5018197;28;20272;-75
2022/06/11 12:05:10;;;;;;;1999.90;999.90;;;26.50;99.90;;;;;;5020600;28;20179;-75
2022/06/11 12:07:42;;;;;;;1999.90;999.90;;;26.60;99.90;;;;;;5018103;28;20233;-75
2022/06/11 12:10:31;;;;;;;1999.90;999.90;;;26.70;99.90;;;;;;5021014;28;20183;-70
2022/06/11 12:12:57;;;;;;;1999.90;999.90;;;26.70;99.90;;;;;;5024629;28;20658;-68
2022/06/11 12:15:34;;;;;;;1999.90;999.90;;;26.90;99.90;;;;;;5015157;28;20254;-69
2022/06/11 12:18:05;;;;;;;1999.90;999.90;;;27.00;99.90;;;;;;5016037;28;20190;-69
2022/06/11 12:20:46;;;;;;;1999.90;999.90;;;27.10;99.90;;;;;;5031398;28;20178;-69
2022/06/11 12:23:21;;;;;;;1999.90;999.90;;;27.00;99.90;;;;;;5042309;28;20197;-69
2022/06/11 12:26:16;;;;;;;1999.90;999.90;;;26.80;99.90;;;;;;5044568;28;20177;-69
2022/06/11 12:28:55;;;;;;;1999.90;999.90;;;26.80;99.90;;;;;;5031548;28;20193;-69